Time;durP1;ratioP1;P1;durP2;ratioP2;P2;SDS_P1;SDS_P2;PMS_P1;PMS_P2;Temp;Humidity;BMP_temperature;BMP_pressure;BME280_temperature;BME280_humidity;BME280_pressure;Samples;Min_cycle;Max_cycle;Signal;HPM_P1;HPM_P2
2021/01/10 00:01:56;;;;;;;12.00;6.13;;;2.90;99.90;;;;;;5024983;28;20409;-42
2021/01/10 00:04:21;;;;;;;8.82;5.07;;;2.90;99.90;;;;;;5025016;28;20576;-44
2021/01/10 00:06:47;;;;;;;8.80;5.15;;;2.90;99.90;;;;;;5023384;28;20033;-43
2021/01/10 00:09:13;;;;;;;8.07;5.25;;;2.90;99.90;;;;;;5015752;28;20033;-43
2021/01/10 00:11:42;;;;;;;7.72;4.95;;;2.90;99.90;;;;;;5023909;28;20026;-44
2021/01/10 00:14:08;;;;;;;11.93;5.90;;;2.90;99.90;;;;;;5028553;28;20041;-43
2021/01/10 00:16:38;;;;;;;9.02;4.95;;;2.90;99.90;;;;;;5015274;28;20056;-41
2021/01/10 00:19:03;;;;;;;8.20;4.65;;;2.90;99.90;;;;;;5026094;28;21022;-41
2021/01/10 00:21:36;;;;;;;8.85;5.13;;;2.90;99.90;;;;;;5030565;28;20056;-45
2021/01/10 00:24:03;;;;;;;7.97;4.47;;;2.90;99.90;;;;;;5026600;28;20489;-41
2021/01/10 00:26:36;;;;;;;9.73;5.20;;;2.90;99.90;;;;;;5016241;28;20385;-42
2021/01/10 00:29:05;;;;;;;9.18;5.65;;;2.90;99.90;;;;;;5029972;28;20036;-43
2021/01/10 00:31:31;;;;;;;10.23;5.63;;;3.00;99.90;;;;;;5029698;28;20804;-43
2021/01/10 00:33:57;;;;;;;9.45;5.68;;;3.00;99.90;;;;;;5029770;28;20045;-44
2021/01/10 00:36:24;;;;;;;9.10;5.50;;;3.00;99.90;;;;;;5041258;28;20056;-43
2021/01/10 00:38:49;;;;;;;8.07;4.65;;;3.00;99.90;;;;;;5029199;28;20025;-42
2021/01/10 00:41:15;;;;;;;8.63;5.15;;;3.00;99.90;;;;;;5031004;28;20041;-46
2021/01/10 00:43:40;;;;;;;7.50;4.30;;;3.00;99.90;;;;;;5032429;28;20033;-43
2021/01/10 00:46:06;;;;;;;8.35;4.75;;;3.00;99.90;;;;;;5027853;28;20105;-43
2021/01/10 00:48:31;;;;;;;8.48;5.07;;;3.00;99.90;;;;;;5037220;28;20464;-43
2021/01/10 00:50:57;;;;;;;9.55;4.85;;;3.00;99.90;;;;;;5028055;28;20207;-41
2021/01/10 00:53:22;;;;;;;9.18;4.72;;;3.00;99.90;;;;;;5033073;28;20036;-43
2021/01/10 00:55:48;;;;;;;10.40;5.85;;;3.00;99.90;;;;;;5032313;28;20021;-43
2021/01/10 00:58:13;;;;;;;8.70;4.80;;;3.00;99.90;;;;;;5027694;28;20366;-47
2021/01/10 01:00:39;;;;;;;8.90;5.13;;;3.00;99.90;;;;;;5018121;28;20025;-43
2021/01/10 01:03:05;;;;;;;8.55;5.15;;;3.00;99.90;;;;;;5029931;28;20037;-42
2021/01/10 01:05:30;;;;;;;10.63;5.38;;;3.00;99.90;;;;;;5025694;28;20099;-44
2021/01/10 01:07:56;;;;;;;8.57;4.80;;;3.00;99.90;;;;;;5030761;28;20033;-44
2021/01/10 01:10:21;;;;;;;8.10;4.93;;;3.00;99.90;;;;;;5025804;28;20057;-44
2021/01/10 01:12:47;;;;;;;7.70;5.00;;;3.00;99.90;;;;;;5032385;28;20061;-41
2021/01/10 01:15:13;;;;;;;7.53;4.85;;;3.00;99.90;;;;;;5032369;28;20113;-41
2021/01/10 01:17:39;;;;;;;11.70;5.72;;;3.00;99.90;;;;;;5028297;28;20026;-41
2021/01/10 01:20:05;;;;;;;9.13;5.22;;;3.00;99.90;;;;;;5031705;28;20029;-42
2021/01/10 01:22:31;;;;;;;8.70;4.97;;;3.00;99.90;;;;;;5026461;28;20124;-41
2021/01/10 01:24:58;;;;;;;8.32;4.75;;;3.00;99.90;;;;;;5023839;28;20117;-44
2021/01/10 01:27:23;;;;;;;8.65;5.20;;;3.00;99.90;;;;;;5032287;28;20021;-42
2021/01/10 01:29:49;;;;;;;8.93;4.85;;;3.00;99.90;;;;;;5027272;28;20439;-44
2021/01/10 01:32:14;;;;;;;8.90;4.72;;;3.00;99.90;;;;;;5024906;28;20145;-41
2021/01/10 01:34:40;;;;;;;10.23;4.95;;;3.00;99.90;;;;;;5027865;28;20034;-44
2021/01/10 01:37:05;;;;;;;9.93;5.25;;;2.90;99.90;;;;;;5027989;28;20379;-43
2021/01/10 01:39:31;;;;;;;7.25;4.53;;;2.90;99.90;;;;;;5021873;28;20043;-41
2021/01/10 01:41:56;;;;;;;11.65;5.00;;;2.90;99.90;;;;;;5026823;28;20033;-42
2021/01/10 01:44:22;;;;;;;6.65;4.60;;;2.90;99.90;;;;;;5031459;28;20048;-43
2021/01/10 01:46:47;;;;;;;8.48;5.25;;;2.90;99.90;;;;;;5029354;28;20429;-41
2021/01/10 01:49:13;;;;;;;9.18;4.93;;;2.90;99.90;;;;;;5031918;28;20493;-45
2021/01/10 01:51:40;;;;;;;9.18;4.82;;;2.90;99.90;;;;;;5029519;28;20038;-41
2021/01/10 01:54:07;;;;;;;8.15;4.35;;;2.90;99.90;;;;;;5029654;28;20026;-42
2021/01/10 01:56:33;;;;;;;9.60;5.40;;;2.90;99.90;;;;;;5031977;28;20489;-44
2021/01/10 01:59:10;;;;;;;8.57;5.13;;;2.90;99.90;;;;;;5018193;28;20037;-43
2021/01/10 02:01:37;;;;;;;9.82;5.32;;;2.90;99.90;;;;;;5033024;28;20048;-42
2021/01/10 02:04:11;;;;;;;8.55;5.00;;;2.90;99.90;;;;;;5026739;28;20040;-43
2021/01/10 02:06:48;;;;;;;9.18;4.80;;;3.00;99.90;;;;;;5023237;28;20032;-43
2021/01/10 02:09:16;;;;;;;7.03;4.15;;;3.00;99.90;;;;;;5025269;28;20037;-41
2021/01/10 02:11:47;;;;;;;8.35;5.00;;;3.00;99.90;;;;;;5030990;28;20025;-45
2021/01/10 02:14:19;;;;;;;7.07;4.18;;;3.00;99.90;;;;;;5024454;28;20033;-44
2021/01/10 02:16:45;;;;;;;6.97;4.85;;;3.00;99.90;;;;;;5027834;28;20603;-44
2021/01/10 02:19:18;;;;;;;6.43;3.78;;;3.00;99.90;;;;;;5030169;28;20368;-43
2021/01/10 02:21:46;;;;;;;8.00;4.47;;;3.00;99.90;;;;;;5026861;28;20086;-42
2021/01/10 02:24:12;;;;;;;6.47;4.10;;;3.00;99.90;;;;;;5026307;28;20034;-46
2021/01/10 02:26:38;;;;;;;7.30;4.45;;;3.00;99.90;;;;;;5032154;28;20025;-43
2021/01/10 02:29:04;;;;;;;8.02;4.68;;;3.00;99.90;;;;;;5032694;28;20030;-44
2021/01/10 02:31:34;;;;;;;7.65;4.97;;;3.00;99.90;;;;;;5033190;28;20036;-42
2021/01/10 02:34:02;;;;;;;9.30;5.20;;;3.00;99.90;;;;;;5025523;28;20060;-44
2021/01/10 02:36:50;;;;;;;8.00;4.90;;;3.00;99.90;;;;;;5032580;28;20029;-42
2021/01/10 02:39:30;;;;;;;6.88;4.70;;;2.90;99.90;;;;;;5019902;28;20037;-40
2021/01/10 02:42:08;;;;;;;7.30;4.45;;;2.90;99.90;;;;;;5026622;28;20021;-41
2021/01/10 02:44:46;;;;;;;8.55;5.07;;;2.90;99.90;;;;;;5026218;28;20105;-44
2021/01/10 02:47:12;;;;;;;6.30;3.90;;;2.90;99.90;;;;;;5031611;28;20522;-41
2021/01/10 02:49:39;;;;;;;6.85;4.68;;;2.90;99.90;;;;;;5023176;28;20021;-41
2021/01/10 02:52:05;;;;;;;7.38;4.40;;;2.90;99.90;;;;;;5025032;28;20038;-44
2021/01/10 02:54:30;;;;;;;8.07;4.47;;;2.90;99.90;;;;;;5021291;28;20036;-43
2021/01/10 02:57:15;;;;;;;6.88;4.13;;;2.90;99.90;;;;;;5018542;28;20552;-41
2021/01/10 02:59:44;;;;;;;7.47;4.63;;;2.90;99.90;;;;;;5024950;28;20025;-44
2021/01/10 03:02:11;;;;;;;8.93;4.88;;;2.90;99.90;;;;;;5030311;28;20385;-41
2021/01/10 03:04:37;;;;;;;8.32;4.45;;;2.90;99.90;;;;;;5030584;28;20021;-41
2021/01/10 03:07:04;;;;;;;7.13;4.47;;;2.90;99.90;;;;;;5029309;28;20031;-44
2021/01/10 03:09:30;;;;;;;7.95;4.35;;;2.90;99.90;;;;;;5022676;28;20083;-41
2021/01/10 03:12:11;;;;;;;8.93;5.28;;;2.90;99.90;;;;;;5027723;28;20041;-41
2021/01/10 03:14:40;;;;;;;8.88;4.65;;;2.90;99.90;;;;;;5031073;28;20108;-41
2021/01/10 03:17:08;;;;;;;8.57;5.10;;;2.90;99.90;;;;;;5031546;28;20033;-41
2021/01/10 03:19:35;;;;;;;10.45;5.68;;;2.90;99.90;;;;;;5031501;28;20043;-41
2021/01/10 03:22:00;;;;;;;9.60;5.68;;;3.00;99.90;;;;;;5031172;28;20032;-42
2021/01/10 03:24:26;;;;;;;9.55;5.45;;;3.00;99.90;;;;;;5030623;28;20033;-43
2021/01/10 03:26:51;;;;;;;8.88;5.25;;;2.90;99.90;;;;;;5032557;28;20496;-46
2021/01/10 03:29:17;;;;;;;7.38;4.63;;;3.00;99.90;;;;;;5022192;28;20030;-43
2021/01/10 03:31:45;;;;;;;9.60;4.97;;;3.00;99.90;;;;;;5020216;28;20025;-43
2021/01/10 03:34:11;;;;;;;7.55;4.88;;;3.00;99.90;;;;;;5031398;28;20106;-41
2021/01/10 03:36:36;;;;;;;9.05;4.65;;;3.00;99.90;;;;;;5023005;28;20037;-43
2021/01/10 03:39:02;;;;;;;8.20;4.90;;;3.00;99.90;;;;;;5025259;28;20037;-41
2021/01/10 03:41:27;;;;;;;8.40;5.00;;;3.00;99.90;;;;;;5023639;28;20488;-43
2021/01/10 03:43:53;;;;;;;10.40;5.55;;;3.00;99.90;;;;;;5027312;28;20034;-41
2021/01/10 03:46:18;;;;;;;7.90;5.00;;;2.90;99.90;;;;;;5021264;28;20500;-43
2021/01/10 03:48:44;;;;;;;7.50;4.65;;;2.90;99.90;;;;;;5030166;28;20043;-42
2021/01/10 03:51:09;;;;;;;9.10;4.95;;;2.90;99.90;;;;;;5027520;28;20485;-42
2021/01/10 03:53:35;;;;;;;8.90;4.88;;;2.90;99.90;;;;;;5019421;28;20033;-41
2021/01/10 03:56:00;;;;;;;9.35;5.35;;;2.80;99.90;;;;;;5023547;28;20037;-41
2021/01/10 03:58:26;;;;;;;7.53;4.38;;;2.80;99.90;;;;;;5031263;28;20492;-44
2021/01/10 04:00:51;;;;;;;8.30;4.70;;;2.80;99.90;;;;;;5030135;28;20061;-46
2021/01/10 04:03:17;;;;;;;10.50;5.07;;;2.80;99.90;;;;;;5030735;28;20472;-44
2021/01/10 04:05:42;;;;;;;7.35;4.35;;;2.80;99.90;;;;;;5029671;28;20025;-45
2021/01/10 04:08:08;;;;;;;14.38;5.38;;;2.80;99.90;;;;;;5044842;28;20033;-44
2021/01/10 04:10:33;;;;;;;10.13;5.40;;;2.80;99.90;;;;;;5023881;28;20443;-47
2021/01/10 04:12:59;;;;;;;9.27;5.60;;;2.80;99.90;;;;;;5029133;28;20392;-44
2021/01/10 04:15:24;;;;;;;12.40;5.85;;;2.80;99.90;;;;;;5025301;28;20388;-42
2021/01/10 04:17:50;;;;;;;8.10;4.07;;;2.80;99.90;;;;;;5025326;28;20026;-42
2021/01/10 04:20:15;;;;;;;8.90;5.35;;;2.70;99.90;;;;;;5030617;28;20021;-43
2021/01/10 04:22:41;;;;;;;8.98;5.03;;;2.70;99.90;;;;;;5025993;28;20076;-43
2021/01/10 04:25:06;;;;;;;10.57;5.78;;;2.70;99.90;;;;;;5030149;28;20384;-41
2021/01/10 04:27:32;;;;;;;10.93;5.57;;;2.60;99.90;;;;;;5030497;28;20025;-43
2021/01/10 04:29:57;;;;;;;8.05;4.45;;;2.50;99.90;;;;;;5031120;28;20033;-42
2021/01/10 04:32:23;;;;;;;9.40;5.13;;;2.40;99.90;;;;;;5030880;28;20044;-40
2021/01/10 04:34:48;;;;;;;10.32;5.70;;;2.20;99.90;;;;;;5031072;28;20040;-41
2021/01/10 04:37:14;;;;;;;12.20;6.32;;;2.10;99.90;;;;;;5019948;28;20207;-41
2021/01/10 04:39:39;;;;;;;13.57;6.10;;;2.00;99.90;;;;;;5020157;28;20034;-43
2021/01/10 04:42:05;;;;;;;13.10;5.97;;;1.90;99.90;;;;;;5012543;28;20026;-42
2021/01/10 04:44:31;;;;;;;13.85;6.90;;;1.80;99.90;;;;;;5024824;28;20021;-43
2021/01/10 04:46:57;;;;;;;11.98;5.70;;;1.70;99.90;;;;;;5030041;28;20030;-44
2021/01/10 04:49:23;;;;;;;13.15;6.88;;;1.50;99.90;;;;;;5025861;28;20026;-43
2021/01/10 04:51:51;;;;;;;10.43;5.35;;;1.40;99.90;;;;;;5026685;28;20041;-44
2021/01/10 04:54:16;;;;;;;14.15;6.93;;;1.30;99.90;;;;;;5024044;28;20151;-43
2021/01/10 04:56:43;;;;;;;12.50;6.43;;;1.10;99.90;;;;;;5026256;28;20504;-41
2021/01/10 04:59:10;;;;;;;15.73;7.15;;;1.00;99.90;;;;;;5027011;28;20022;-44
2021/01/10 05:01:41;;;;;;;13.73;6.72;;;0.90;99.90;;;;;;5016671;28;20026;-42
2021/01/10 05:04:07;;;;;;;13.77;6.78;;;0.70;99.90;;;;;;5025785;28;20468;-42
2021/01/10 05:06:34;;;;;;;9.65;5.05;;;0.60;99.90;;;;;;5030066;28;20033;-42
2021/01/10 05:09:00;;;;;;;10.27;4.68;;;0.50;99.90;;;;;;5027319;28;20033;-45
2021/01/10 05:11:26;;;;;;;15.10;6.25;;;0.40;99.90;;;;;;5021940;28;20400;-44
2021/01/10 05:13:51;;;;;;;15.52;6.45;;;0.30;99.90;;;;;;5027660;28;20033;-44
2021/01/10 05:16:18;;;;;;;14.02;6.55;;;0.30;99.90;;;;;;5026881;28;20025;-45
2021/01/10 05:18:54;;;;;;;15.13;6.97;;;0.30;99.90;;;;;;5022705;28;20561;-43
2021/01/10 05:21:22;;;;;;;15.93;6.82;;;0.30;99.90;;;;;;5045068;28;20030;-44
2021/01/10 05:23:55;;;;;;;12.25;5.80;;;0.30;99.90;;;;;;5040711;28;20036;-43
2021/01/10 05:26:23;;;;;;;13.55;5.97;;;0.30;99.90;;;;;;5033226;28;21004;-41
2021/01/10 05:28:52;;;;;;;14.93;6.60;;;0.30;99.90;;;;;;5027536;28;20041;-45
2021/01/10 05:31:33;;;;;;;14.05;7.03;;;0.20;99.90;;;;;;5034035;28;20029;-43
2021/01/10 05:33:59;;;;;;;17.23;7.25;;;0.10;99.90;;;;;;5032991;28;20040;-43
2021/01/10 05:36:34;;;;;;;15.00;6.60;;;0.00;99.90;;;;;;5027584;28;20026;-42
2021/01/10 05:39:25;;;;;;;14.70;6.22;;;-0.10;99.90;;;;;;5028576;28;20078;-46
2021/01/10 05:41:59;;;;;;;14.80;6.78;;;-0.20;99.90;;;;;;5030421;28;20057;-41
2021/01/10 05:44:26;;;;;;;15.48;6.10;;;-0.20;99.90;;;;;;5021816;28;20029;-43
2021/01/10 05:47:04;;;;;;;15.32;6.60;;;-0.10;99.90;;;;;;5033279;28;20076;-41
2021/01/10 05:49:29;;;;;;;14.32;6.57;;;0.00;99.90;;;;;;5028480;28;20028;-46
2021/01/10 05:51:55;;;;;;;16.50;6.78;;;0.10;99.90;;;;;;5030694;28;20112;-41
2021/01/10 05:54:41;;;;;;;15.77;7.05;;;0.20;99.90;;;;;;5025321;28;20024;-43
2021/01/10 05:57:13;;;;;;;16.50;7.22;;;0.20;99.90;;;;;;5025246;28;20029;-43
2021/01/10 05:59:51;;;;;;;14.52;5.93;;;0.20;99.90;;;;;;5026482;28;20025;-41
2021/01/10 06:02:33;;;;;;;13.65;6.32;;;0.10;99.90;;;;;;5023672;28;20108;-44
2021/01/10 06:05:16;;;;;;;19.92;7.55;;;0.10;99.90;;;;;;5032830;28;20079;-43
2021/01/10 06:07:42;;;;;;;14.90;6.07;;;0.10;99.90;;;;;;5025366;28;20379;-41
2021/01/10 06:10:09;;;;;;;14.00;6.55;;;0.10;99.90;;;;;;5025587;28;20033;-45
2021/01/10 06:12:35;;;;;;;14.82;6.45;;;0.10;99.90;;;;;;5024998;28;20032;-41
2021/01/10 06:15:13;;;;;;;15.80;6.43;;;0.10;99.90;;;;;;5032562;28;20106;-41
2021/01/10 06:17:45;;;;;;;17.55;7.15;;;0.20;99.90;;;;;;5028879;28;20045;-44
2021/01/10 06:20:23;;;;;;;20.02;7.97;;;0.20;99.90;;;;;;5022135;28;20095;-41
2021/01/10 06:22:50;;;;;;;22.67;8.35;;;0.30;99.90;;;;;;5026782;28;20079;-42
2021/01/10 06:25:21;;;;;;;18.63;7.00;;;0.30;99.90;;;;;;5031319;28;20484;-43
2021/01/10 06:27:55;;;;;;;13.95;6.47;;;0.30;99.90;;;;;;5028312;28;20036;-43
2021/01/10 06:30:25;;;;;;;19.10;7.57;;;0.30;99.90;;;;;;5025739;28;20131;-45
2021/01/10 06:32:58;;;;;;;19.50;7.95;;;0.30;99.90;;;;;;5029138;28;20038;-44
2021/01/10 06:35:27;;;;;;;16.10;7.05;;;0.20;99.90;;;;;;5029415;28;20040;-43
2021/01/10 06:37:56;;;;;;;20.63;8.02;;;0.20;99.90;;;;;;5017336;28;20036;-46
2021/01/10 06:40:24;;;;;;;21.48;8.77;;;0.20;99.90;;;;;;5024104;28;20021;-46
2021/01/10 06:42:54;;;;;;;23.45;8.38;;;0.20;99.90;;;;;;5039985;28;20049;-43
2021/01/10 06:45:20;;;;;;;22.95;9.38;;;0.10;99.90;;;;;;5027507;28;20031;-43
2021/01/10 06:47:53;;;;;;;18.10;7.28;;;0.20;99.90;;;;;;5028778;28;20053;-42
2021/01/10 06:50:20;;;;;;;18.85;7.82;;;0.20;99.90;;;;;;5030090;28;20025;-44
2021/01/10 06:52:47;;;;;;;16.63;7.88;;;0.10;99.90;;;;;;5031921;28;20049;-43
2021/01/10 06:55:16;;;;;;;18.70;7.68;;;0.20;99.90;;;;;;5031760;28;20108;-46
2021/01/10 06:57:42;;;;;;;17.05;6.90;;;0.20;99.90;;;;;;5032217;28;20418;-43
2021/01/10 07:00:11;;;;;;;19.20;7.90;;;0.20;99.90;;;;;;5032121;28;20026;-46
2021/01/10 07:03:06;;;;;;;16.17;6.95;;;0.30;99.90;;;;;;5028023;28;20045;-45
2021/01/10 07:06:07;;;;;;;18.92;8.20;;;0.30;99.90;;;;;;5027463;28;20033;-42
2021/01/10 07:08:44;;;;;;;16.35;7.22;;;0.30;99.90;;;;;;5024285;28;20044;-42
2021/01/10 07:11:21;;;;;;;;;;;0.30;99.90;;;;;;5013772;28;20477;-43
2021/01/10 07:14:11;;;;;;;21.77;7.60;;;0.30;99.90;;;;;;5039707;28;19936;-47
2021/01/10 07:16:37;;;;;;;23.95;8.40;;;0.20;99.90;;;;;;5020518;28;20025;-47
2021/01/10 07:19:06;;;;;;;16.73;7.07;;;0.20;99.90;;;;;;5028106;28;20033;-44
2021/01/10 07:21:46;;;;;;;22.20;7.70;;;0.20;99.90;;;;;;5031655;28;20026;-42
2021/01/10 07:24:15;;;;;;;22.33;9.10;;;0.30;99.90;;;;;;5021126;28;20037;-42
2021/01/10 07:26:48;;;;;;;17.77;7.80;;;0.30;99.90;;;;;;5022382;28;20052;-45
2021/01/10 07:29:26;;;;;;;16.75;7.45;;;0.30;99.90;;;;;;5026886;28;20038;-41
2021/01/10 07:32:03;;;;;;;20.65;7.53;;;0.40;99.90;;;;;;5022074;28;20174;-42
2021/01/10 07:34:31;;;;;;;21.20;8.88;;;0.40;99.90;;;;;;5031181;28;20025;-43
2021/01/10 07:37:00;;;;;;;23.52;11.05;;;0.50;99.90;;;;;;5028696;28;20040;-44
2021/01/10 07:39:31;;;;;;;25.73;11.35;;;0.50;99.90;;;;;;5016124;28;20109;-46
2021/01/10 07:42:08;;;;;;;27.38;11.68;;;0.60;99.90;;;;;;5025032;28;20190;-45
2021/01/10 07:44:49;;;;;;;26.77;11.35;;;0.60;99.90;;;;;;5017027;28;20376;-45
2021/01/10 07:47:18;;;;;;;33.90;14.90;;;0.60;99.90;;;;;;5025849;28;20017;-45
2021/01/10 07:49:57;;;;;;;29.45;12.35;;;0.60;99.90;;;;;;5043386;28;20049;-45
2021/01/10 07:52:41;;;;;;;34.15;13.23;;;0.70;99.90;;;;;;5028156;28;20575;-46
2021/01/10 07:55:18;;;;;;;28.08;11.00;;;0.70;99.90;;;;;;5026599;28;20105;-44
2021/01/10 07:57:52;;;;;;;26.48;10.65;;;0.70;99.90;;;;;;5030943;28;20407;-43
2021/01/10 08:00:35;;;;;;;25.20;10.35;;;0.80;99.90;;;;;;5022010;28;20022;-46
2021/01/10 08:03:03;;;;;;;21.25;9.43;;;0.90;99.90;;;;;;5024872;28;20137;-47
2021/01/10 08:05:37;;;;;;;22.90;9.88;;;1.00;99.90;;;;;;5030356;28;20021;-46
2021/01/10 08:08:17;;;;;;;21.67;9.07;;;1.10;99.90;;;;;;5026120;28;20851;-41
2021/01/10 08:10:48;;;;;;;26.70;10.25;;;1.10;99.90;;;;;;5025810;28;20914;-41
2021/01/10 08:13:26;;;;;;;32.33;12.75;;;1.20;99.90;;;;;;5029685;28;20037;-42
2021/01/10 08:15:54;;;;;;;25.23;11.00;;;1.30;99.90;;;;;;5029196;28;20017;-41
2021/01/10 08:18:21;;;;;;;22.67;10.25;;;1.40;99.90;;;;;;5028816;28;20032;-41
2021/01/10 08:20:51;;;;;;;22.80;10.40;;;1.40;99.90;;;;;;5022574;28;20022;-44
2021/01/10 08:23:17;;;;;;;27.08;11.35;;;1.50;99.90;;;;;;5028183;28;20427;-43
2021/01/10 08:25:43;;;;;;;19.52;8.70;;;1.50;99.90;;;;;;5026106;28;20037;-42
2021/01/10 08:28:16;;;;;;;28.65;12.05;;;1.50;99.90;;;;;;5017166;28;20036;-41
2021/01/10 08:30:43;;;;;;;25.20;11.45;;;1.70;99.90;;;;;;5031315;28;20105;-43
2021/01/10 08:33:19;;;;;;;25.10;10.88;;;1.80;99.90;;;;;;5031196;28;20038;-41
2021/01/10 08:35:47;;;;;;;21.00;9.52;;;1.80;99.90;;;;;;5013764;28;20477;-41
2021/01/10 08:38:12;;;;;;;26.05;10.57;;;1.80;99.90;;;;;;5029516;28;20404;-44
2021/01/10 08:40:38;;;;;;;27.98;13.13;;;1.90;99.90;;;;;;5024250;28;20026;-41
2021/01/10 08:43:04;;;;;;;36.30;15.65;;;2.00;99.90;;;;;;5024632;28;20121;-41
2021/01/10 08:45:29;;;;;;;33.55;15.75;;;2.00;99.90;;;;;;5030416;28;20108;-43
2021/01/10 08:47:55;;;;;;;24.75;12.40;;;2.10;99.90;;;;;;5030471;28;20048;-44
2021/01/10 08:50:22;;;;;;;19.58;10.00;;;2.20;99.90;;;;;;5029500;28;20481;-41
2021/01/10 08:52:55;;;;;;;22.33;10.55;;;2.30;99.90;;;;;;5031203;28;20069;-43
2021/01/10 08:55:32;;;;;;;18.48;8.88;;;2.30;99.90;;;;;;5032714;28;20515;-43
2021/01/10 08:57:59;;;;;;;15.23;7.43;;;2.40;99.90;;;;;;5032049;28;20025;-42
2021/01/10 09:00:25;;;;;;;15.43;7.57;;;2.40;99.90;;;;;;5028998;28;20030;-44
2021/01/10 09:02:51;;;;;;;14.35;7.20;;;2.50;99.90;;;;;;5034710;28;20091;-43
2021/01/10 09:05:24;;;;;;;19.60;8.50;;;2.50;99.90;;;;;;5025367;28;20041;-42
2021/01/10 09:07:53;;;;;;;15.52;8.63;;;2.50;99.90;;;;;;5034034;28;20493;-41
2021/01/10 09:10:21;;;;;;;15.75;7.72;;;2.60;99.90;;;;;;5031561;28;20127;-41
2021/01/10 09:12:49;;;;;;;17.42;8.23;;;2.60;99.90;;;;;;5031534;28;20065;-42
2021/01/10 09:15:21;;;;;;;13.95;7.22;;;2.60;99.90;;;;;;5029852;28;20033;-41
2021/01/10 09:18:00;;;;;;;15.10;7.68;;;2.60;99.90;;;;;;5021252;28;20130;-42
2021/01/10 09:20:35;;;;;;;14.40;7.13;;;2.60;99.90;;;;;;5030378;28;20109;-44
2021/01/10 09:23:07;;;;;;;16.42;8.05;;;2.70;99.90;;;;;;5029496;28;20449;-43
2021/01/10 09:25:34;;;;;;;12.02;6.82;;;2.70;99.90;;;;;;5028996;28;20045;-41
2021/01/10 09:28:15;;;;;;;14.90;7.60;;;2.70;99.90;;;;;;5027273;28;20371;-42
2021/01/10 09:30:52;;;;;;;12.45;6.70;;;2.70;99.90;;;;;;5030322;28;20033;-42
2021/01/10 09:33:29;;;;;;;13.00;6.50;;;2.70;99.90;;;;;;5030965;28;20068;-43
2021/01/10 09:35:58;;;;;;;12.48;6.45;;;2.70;99.90;;;;;;5031175;28;20048;-44
2021/01/10 09:38:28;;;;;;;13.48;7.20;;;2.70;99.90;;;;;;5033005;28;20040;-48
2021/01/10 09:41:10;;;;;;;11.30;6.38;;;2.70;99.90;;;;;;5027714;28;20092;-45
2021/01/10 09:43:42;;;;;;;12.23;6.43;;;2.70;99.90;;;;;;5019779;28;20034;-43
2021/01/10 09:46:38;;;;;;;11.45;5.82;;;2.70;99.90;;;;;;5027426;28;21540;-44
2021/01/10 09:49:25;;;;;;;11.32;6.43;;;2.70;99.90;;;;;;5036718;28;20041;-44
2021/01/10 09:51:53;;;;;;;12.80;6.40;;;2.70;99.90;;;;;;5028233;28;20065;-44
2021/01/10 09:54:20;;;;;;;10.13;5.97;;;2.70;99.90;;;;;;5021331;28;20062;-44
2021/01/10 09:56:56;;;;;;;11.77;6.57;;;2.80;99.90;;;;;;5033612;28;20017;-44
2021/01/10 09:59:44;;;;;;;12.30;5.90;;;2.80;99.90;;;;;;5033426;28;20025;-45
2021/01/10 10:02:14;;;;;;;9.35;5.97;;;2.80;99.90;;;;;;5027192;28;20064;-48
2021/01/10 10:04:41;;;;;;;9.75;5.85;;;2.80;99.90;;;;;;5027358;28;20022;-46
2021/01/10 10:07:08;;;;;;;12.63;5.90;;;2.90;99.90;;;;;;5026177;28;20033;-45
2021/01/10 10:09:48;;;;;;;10.60;5.72;;;2.90;99.90;;;;;;5031570;28;20033;-44
2021/01/10 10:12:14;;;;;;;11.65;6.05;;;2.90;99.90;;;;;;5026104;28;20077;-47
2021/01/10 10:14:50;;;;;;;10.82;5.60;;;2.90;99.90;;;;;;5027356;28;20036;-42
2021/01/10 10:17:18;;;;;;;11.27;6.05;;;2.90;99.90;;;;;;5020413;28;20028;-43
2021/01/10 10:19:43;;;;;;;13.20;6.78;;;3.00;99.90;;;;;;5033032;28;20124;-44
2021/01/10 10:22:19;;;;;;;10.88;6.20;;;3.00;99.90;;;;;;5032438;28;20060;-42
2021/01/10 10:24:45;;;;;;;10.40;5.93;;;3.00;99.90;;;;;;5022632;28;20057;-44
2021/01/10 10:27:10;;;;;;;9.25;5.35;;;3.00;99.90;;;;;;5022303;28;20092;-45
2021/01/10 10:29:36;;;;;;;10.32;5.32;;;3.00;99.90;;;;;;5030827;28;20544;-45
2021/01/10 10:32:01;;;;;;;11.38;5.57;;;3.00;99.90;;;;;;5022507;28;20021;-42
2021/01/10 10:34:27;;;;;;;9.80;5.53;;;3.00;99.90;;;;;;5030892;28;20021;-44
2021/01/10 10:36:57;;;;;;;9.45;5.43;;;3.00;99.90;;;;;;5029038;28;20061;-42
2021/01/10 10:39:22;;;;;;;12.00;6.20;;;3.00;99.90;;;;;;5027636;28;20025;-46
2021/01/10 10:41:47;;;;;;;8.43;5.35;;;3.10;99.90;;;;;;5028236;28;20366;-44
2021/01/10 10:44:13;;;;;;;11.88;6.65;;;3.10;99.90;;;;;;5025880;28;20037;-42
2021/01/10 10:46:40;;;;;;;19.40;9.35;;;3.20;99.90;;;;;;5032310;28;20511;-44
2021/01/10 10:49:06;;;;;;;12.90;7.15;;;3.30;99.90;;;;;;5031671;28;20090;-43
2021/01/10 10:51:31;;;;;;;11.07;7.10;;;3.30;99.90;;;;;;5028192;28;20465;-42
2021/01/10 10:53:57;;;;;;;18.65;10.95;;;3.40;99.90;;;;;;5031703;28;20033;-43
2021/01/10 10:56:22;;;;;;;22.83;13.32;;;3.40;99.90;;;;;;5024248;28;20318;-44
2021/01/10 10:58:48;;;;;;;13.63;7.97;;;3.40;99.90;;;;;;5025233;28;20067;-42
2021/01/10 11:01:13;;;;;;;13.07;8.35;;;3.30;99.90;;;;;;5024372;28;20520;-44
2021/01/10 11:03:39;;;;;;;11.60;7.30;;;3.30;99.90;;;;;;5030918;28;20151;-42
2021/01/10 11:06:04;;;;;;;16.08;9.25;;;3.40;99.90;;;;;;5023873;28;20040;-42
2021/01/10 11:08:30;;;;;;;12.75;8.32;;;3.30;99.90;;;;;;5027842;28;20029;-44
2021/01/10 11:10:55;;;;;;;11.13;7.13;;;3.30;99.90;;;;;;5026898;28;20117;-44
2021/01/10 11:13:21;;;;;;;24.63;13.65;;;3.40;99.90;;;;;;5025995;28;20112;-43
2021/01/10 11:15:46;;;;;;;14.00;9.10;;;3.50;99.90;;;;;;5027543;28;20362;-44
2021/01/10 11:18:12;;;;;;;12.63;8.32;;;3.50;99.90;;;;;;5030787;28;20044;-47
2021/01/10 11:20:37;;;;;;;9.73;6.22;;;3.50;99.90;;;;;;5025263;28;20491;-42
2021/01/10 11:23:03;;;;;;;10.32;7.20;;;3.60;99.90;;;;;;5031818;28;20041;-42
2021/01/10 11:25:29;;;;;;;8.65;5.50;;;3.60;99.90;;;;;;5027566;28;20037;-44
2021/01/10 11:27:54;;;;;;;9.00;6.32;;;3.60;99.90;;;;;;5025318;28;20443;-44
2021/01/10 11:30:20;;;;;;;9.05;5.68;;;3.70;99.90;;;;;;5031332;28;20029;-44
2021/01/10 11:32:46;;;;;;;9.32;5.82;;;3.70;99.90;;;;;;5031568;28;20473;-44
2021/01/10 11:35:12;;;;;;;9.27;5.82;;;3.70;99.90;;;;;;5025281;28;20461;-44
2021/01/10 11:37:37;;;;;;;7.45;5.50;;;3.80;99.90;;;;;;5029102;28;20052;-45
2021/01/10 11:40:03;;;;;;;9.80;6.32;;;3.80;99.90;;;;;;5029584;28;20057;-46
2021/01/10 11:42:28;;;;;;;7.93;4.63;;;3.80;99.90;;;;;;5024119;28;20025;-44
2021/01/10 11:44:54;;;;;;;7.82;4.75;;;3.80;99.90;;;;;;5026309;28;20480;-43
2021/01/10 11:47:23;;;;;;;7.80;5.25;;;3.80;99.90;;;;;;5027839;28;20575;-42
2021/01/10 11:49:48;;;;;;;9.90;5.93;;;3.70;99.90;;;;;;5026208;28;20033;-42
2021/01/10 11:52:14;;;;;;;7.25;4.75;;;3.60;99.90;;;;;;5026357;28;20083;-46
2021/01/10 11:54:39;;;;;;;7.95;4.85;;;3.50;99.90;;;;;;5025222;28;20021;-44
2021/01/10 11:57:05;;;;;;;7.30;4.68;;;3.40;99.90;;;;;;5025432;28;20029;-44
2021/01/10 11:59:30;;;;;;;7.57;4.57;;;3.30;99.90;;;;;;5028579;28;20381;-42
2021/01/10 12:01:56;;;;;;;9.63;5.43;;;3.20;99.90;;;;;;5027753;28;20025;-44
2021/01/10 12:04:21;;;;;;;8.10;5.63;;;3.00;99.90;;;;;;5028224;28;20033;-46
2021/01/10 12:06:46;;;;;;;10.50;6.55;;;2.80;99.90;;;;;;5029450;28;20025;-44
2021/01/10 12:09:13;;;;;;;10.88;6.07;;;2.90;99.90;;;;;;5029852;28;20064;-44
2021/01/10 12:11:39;;;;;;;10.02;6.05;;;3.00;99.90;;;;;;5030906;28;20021;-45
2021/01/10 12:14:06;;;;;;;12.48;6.07;;;3.00;99.90;;;;;;5030596;28;20080;-43
2021/01/10 12:16:31;;;;;;;11.45;6.47;;;2.90;99.90;;;;;;5017332;28;20041;-44
2021/01/10 12:18:57;;;;;;;9.90;6.03;;;2.90;99.90;;;;;;5026371;28;20477;-44
2021/01/10 12:21:22;;;;;;;13.68;6.07;;;2.90;99.90;;;;;;5030582;28;20038;-42
2021/01/10 12:23:48;;;;;;;12.85;6.60;;;2.90;99.90;;;;;;5036413;28;20099;-48
2021/01/10 12:26:15;;;;;;;10.95;5.63;;;2.80;99.90;;;;;;5026272;28;20037;-42
2021/01/10 12:28:42;;;;;;;10.25;5.57;;;2.80;99.90;;;;;;5041479;28;20030;-44
2021/01/10 12:31:08;;;;;;;8.63;5.10;;;2.80;99.90;;;;;;5028685;28;20034;-43
2021/01/10 12:33:34;;;;;;;13.35;7.95;;;2.70;99.90;;;;;;5024763;28;20047;-44
2021/01/10 12:36:01;;;;;;;9.93;6.03;;;2.70;99.90;;;;;;5029730;28;20116;-43
2021/01/10 12:38:26;;;;;;;12.93;7.00;;;2.80;99.90;;;;;;5030894;28;20037;-44
2021/01/10 12:40:52;;;;;;;10.15;5.97;;;2.90;99.90;;;;;;5020896;28;20037;-44
2021/01/10 12:43:17;;;;;;;9.25;5.50;;;3.10;99.90;;;;;;5031280;28;20360;-44
2021/01/10 12:45:43;;;;;;;8.05;5.45;;;3.10;99.90;;;;;;5033858;28;20542;-43
2021/01/10 12:48:10;;;;;;;13.85;8.38;;;3.10;99.90;;;;;;5034457;28;20033;-47
2021/01/10 12:50:36;;;;;;;11.20;6.45;;;3.10;99.90;;;;;;5030915;28;20072;-44
2021/01/10 12:53:02;;;;;;;10.35;6.10;;;3.00;99.90;;;;;;5027644;28;20430;-47
2021/01/10 12:55:27;;;;;;;11.82;6.30;;;2.90;99.90;;;;;;5029310;28;20052;-45
2021/01/10 12:57:53;;;;;;;11.38;7.38;;;2.80;99.90;;;;;;5032230;28;20057;-44
2021/01/10 13:00:19;;;;;;;10.77;6.43;;;2.60;99.90;;;;;;5033318;28;20075;-43